x

Cape Elizabeth- 45nm Nw Of Aberdeen, Wa (46041) Wave Buoy

9:50pm - Mon 30th Mar 2015 All times are PDT. -7 hours from GMT.

  • Sig Wave height 10.2ft
  • Swell Direction
  • Peak Period 13s
  • Average Period 7s
  • Wind
    25mph, 29mph gusts
  • Sea Temp 52°f
  • Air Temp 47°f
  • Sea Pressure 1010.9mb
  • Cape Elizabeth- 45nm Nw Of Aberdeen, Wa
  • Cape Elizabeth- 45nm Nw Of Aberdeen, Wa

More Historic Weather Station data

Upgrade to MSW Pro to gain access to the past 30 days of data for over 8000 Wavebouys and Weather Stations around the globe.

Join Pro

Comparision Forecast

View Surf forecast
   
Mon 03/30 9:50pm 10ft 13s 7s 25 29 mph 1010.9mb 52f 47f
8:50pm 9ft 13s 7s 22 27 mph 1009.9mb 53f 49f
7:50pm 9.5ft 11s 7s 25 29 mph 1009.7mb 53f 53f
6:50pm 11ft 13s 8s 18 22 mph 1011.3mb 53f 53f
5:50pm 10.5ft 11s 8s 20 22 mph 1012mb 53f 53f
4:50pm 11ft 12s 8s 20 22 mph 1012.9mb 53f 53f
3:50pm 9.5ft 12s 8s 20 22 mph 1013.7mb 53f 53f
2:50pm 9.5ft 13s 7s 18 22 mph 1014.6mb 53f 53f
1:50pm 10ft 11s 8s 18 22 mph 1015.3mb 53f 53f
12:50pm 9ft 12s 8s 18 25 mph 1016.2mb 52f 53f
11:50am 10.5ft 12s 8s 18 22 mph 1016.6mb 52f 53f
10:50am 10.5ft 12s 8s 20 22 mph 1016.9mb 52f 52f
9:50am 9ft 12s 8s 18 20 mph 1016.9mb 52f 52f
8:50am 9ft 12s 8s 20 22 mph 1017.4mb 52f 52f
7:50am 10.5ft 13s 9s 18 22 mph 1017.4mb 52f 52f
6:50am 10.5ft 13s 9s 18 22 mph 1017.5mb 52f 53f
5:50am 10.5ft 14s 8s 16 20 mph 1017.8mb 52f 53f
4:50am 11ft 14s 9s 18 20 mph 1018mb 52f 53f
3:50am 9ft 13s 8s 16 18 mph 1018.6mb 52f 53f
2:50am 10.5ft 13s 8s 16 20 mph 1019mb 52f 53f
1:50am 12ft 13s 9s 16 20 mph 1019.2mb 53f 53f
12:50am 12.5ft 14s 9s 13 18 mph 1019.3mb 53f 53f
Sun 03/29 11:50pm 11ft 11s 9s 11 13 mph 1019.8mb 53f 53f
10:50pm 10ft 11s 8s 13 16 mph 1020.1mb 53f 53f
9:50pm 12ft 11s 9s 13 16 mph 1020.2mb 53f 53f
8:50pm 9.5ft 12s 8s 16 18 mph 1020.2mb 53f 53f
7:50pm 10ft 11s 8s 16 18 mph 1020.2mb 53f 53f
6:50pm 10ft 11s 8s 13 18 mph 1020.6mb 53f 53f
5:50pm 11ft 12s 8s 13 16 mph 1021mb 53f 53f
4:50pm 10ft 12s 7s 16 20 mph 1021.5mb 53f 53f
3:50pm 11ft 12s 8s 18 20 mph 1021.8mb 53f 53f
2:50pm 11ft 11s 8s 18 20 mph 1022mb 53f 53f
1:50pm 12ft 12s 8s 18 22 mph 1022.3mb 53f 53f
12:50pm 12ft 12s 8s 20 25 mph 1022.2mb 52f 53f
11:50am 11ft 12s 8s 22 27 mph 1022.3mb 52f 53f
10:50am 10.5ft 12s 7s 20 25 mph 1022.5mb 52f 53f
9:50am 12ft 11s 8s 22 25 mph 1022.2mb 52f 53f
8:50am 12ft 12s 8s 20 25 mph 1022.2mb 52f 53f
7:50am 12ft 11s 8s 22 25 mph 1022.3mb 52f 53f
6:50am 12ft 11s 8s 20 22 mph 1022.6mb 52f 53f
5:50am 11ft 11s 7s 20 25 mph 1022.7mb 52f 53f
4:50am 10ft 11s 7s 20 25 mph 1023.3mb 52f 53f
3:50am 9.5ft 10s 7s 22 25 mph 1023.4mb 52f 53f
2:50am 8ft 10s 7s 20 25 mph 1024mb 52f 52f
1:50am 8.5ft 11s 7s 18 22 mph 1024.5mb 52f 52f
12:50am 8ft 11s 6s 16 20 mph 1025.3mb 52f 53f
Sat 03/28 11:50pm 7.5ft 11s 7s 18 20 mph 1025.5mb 52f 53f
10:50pm 8ft 8s 6s 18 22 mph 1025.7mb 52f 53f
9:50pm 8ft 8s 6s 18 22 mph 1025.7mb 52f 53f
8:50pm 8ft 9s 7s 18 22 mph 1025.6mb 52f 53f
7:50pm 7ft 11s 6s 20 22 mph 1025.4mb 52f 53f
6:50pm 8ft 10s 7s 18 22 mph 1025.9mb 52f 53f
5:50pm 8ft 11s 7s 18 20 mph 1026.3mb 53f 53f
4:50pm 9ft 11s 7s 20 25 mph 1026.7mb 53f 53f
3:50pm 8ft 10s 7s 18 20 mph 1026.9mb 53f 53f
2:50pm 9ft 10s 7s 16 18 mph 1027.2mb 53f 53f
1:50pm 9ft 11s 7s 16 18 mph 1027.6mb 53f 53f
12:50pm 9ft 11s 8s 13 16 mph 1027.3mb 53f 53f
11:50am 9ft 11s 7s 11 13 mph 1026.4mb 53f 51f
10:50am 8.5ft 11s 7s 9 13 mph 1026.5mb 52f 52f
9:50am 9ft 9s 7s 9 11 mph 1026mb 52f 52f
8:50am 9ft 12s 7s 9 11 mph 1025.4mb 52f 52f
7:50am 9ft 8s 7s 13 16 mph 1024.7mb 52f 52f
6:50am 9ft 8s 7s 11 16 mph 1023.4mb 52f 51f
5:50am 10ft 8s 7s 16 20 mph 1022.6mb 52f 52f
4:50am 10ft 12s 7s 18 22 mph 1021.9mb 52f 51f
3:50am 10ft 12s 7s 18 22 mph 1021.3mb 52f 50f
2:50am 10ft 11s 7s 20 22 mph 1020.6mb 52f 51f
1:50am 9.5ft 12s 7s 22 27 mph 1019.7mb 52f 51f
12:50am 9ft 12s 7s 20 25 mph 1019.2mb 52f 52f
Fri 03/27 11:50pm 8.5ft 12s 7s 20 25 mph 1018.4mb 52f 52f
10:50pm 9.5ft 12s 7s 20 29 mph 1017.8mb 52f 51f
9:50pm 9ft 13s 7s 18 25 mph 1017mb 52f 53f
8:50pm 8.5ft 12s 7s 20 25 mph 1015.3mb 52f 53f
7:50pm 9ft 13s 7s 16 20 mph 1014.7mb 52f 53f
6:50pm 9ft 12s 7s 13 16 mph 1014.4mb 52f 52f
5:50pm 8.5ft 14s 7s 22 27 mph 1014mb 52f 53f
4:50pm 7.5ft 14s 7s 20 27 mph 1014.6mb 53f 53f
3:50pm 8.5ft 13s 7s 20 25 mph 1015.1mb 53f 53f
2:50pm 8ft 11s 7s 20 25 mph 1015.4mb 53f 53f
1:50pm 8ft 14s 8s 18 22 mph 1016.4mb 53f 53f
12:50pm 9ft 13s 9s 18 22 mph 1016.7mb 53f 53f
11:50am 9.5ft 14s 9s 16 18 mph 1016.8mb 53f 52f
10:50am 9ft 13s 9s 11 13 mph 1016.9mb 53f 51f
9:50am 8.5ft 13s 9s 7 9 mph 1016.8mb 53f 52f
8:50am 7.5ft 11s 9s 4 7 mph 1016.7mb 52f 52f
7:50am 8ft 13s 9s 2 4 mph 1016.2mb 53f 52f
6:50am 7ft 12s 9s 2 4 mph 1016.2mb 53f 52f